createdAt,value
2023-03-18T00:00:01.150Z,11.90
2023-03-18T00:03:50.654Z,11.70
2023-03-18T00:07:19.213Z,13.10
2023-03-18T00:10:46.974Z,12.80
2023-03-18T00:14:25.744Z,12.00
2023-03-18T00:17:55.647Z,12.30
2023-03-18T00:21:24.847Z,12.50
2023-03-18T00:24:53.671Z,11.70
2023-03-18T00:28:21.195Z,12.10
2023-03-18T00:31:49.423Z,12.10
2023-03-18T00:35:17.454Z,11.90
2023-03-18T00:38:49.469Z,12.00
2023-03-18T00:42:17.777Z,11.70
2023-03-18T00:45:45.641Z,11.90
2023-03-18T00:49:12.797Z,11.70
2023-03-18T00:52:40.727Z,11.70
2023-03-18T00:56:09.110Z,11.80
2023-03-18T00:59:37.091Z,12.50
2023-03-18T01:03:09.454Z,11.90
2023-03-18T01:06:39.584Z,11.60
2023-03-18T01:10:10.885Z,11.10
2023-03-18T01:13:39.281Z,11.10
2023-03-18T01:17:07.481Z,11.30
2023-03-18T01:20:35.638Z,11.40
2023-03-18T01:24:04.761Z,10.50
2023-03-18T01:27:33.811Z,10.70
2023-03-18T01:31:03.963Z,10.80
2023-03-18T01:34:31.200Z,10.50
2023-03-18T01:41:27.476Z,11.30
2023-03-18T01:45:20.058Z,10.80
2023-03-18T01:48:48.911Z,11.20
2023-03-18T01:52:20.449Z,11.40
2023-03-18T01:55:52.458Z,10.20
2023-03-18T01:59:23.357Z,10.50
2023-03-18T02:02:53.952Z,11.20
2023-03-18T02:06:21.330Z,11.50
2023-03-18T02:10:00.798Z,10.70
2023-03-18T02:13:28.948Z,10.30
2023-03-18T02:17:02.347Z,11.40
2023-03-18T02:20:42.577Z,11.20
2023-03-18T02:24:24.483Z,10.10
2023-03-18T02:27:56.433Z,11.00
2023-03-18T02:31:27.554Z,11.30
2023-03-18T02:34:55.879Z,10.90
2023-03-18T02:38:25.215Z,10.80
2023-03-18T02:41:55.573Z,10.70
2023-03-18T02:45:37.995Z,10.40
2023-03-18T02:49:12.373Z,10.40
2023-03-18T02:52:40.113Z,11.00
2023-03-18T02:56:09.514Z,10.60
2023-03-18T02:59:36.878Z,10.80
2023-03-18T03:03:08.467Z,10.20
2023-03-18T03:06:38.551Z,11.00
2023-03-18T03:10:08.612Z,11.20
2023-03-18T03:13:36.149Z,11.00
2023-03-18T03:17:04.543Z,10.10
2023-03-18T03:20:33.891Z,11.30
2023-03-18T03:24:02.047Z,11.80
2023-03-18T03:27:29.647Z,10.40
2023-03-18T03:30:59.589Z,10.70
2023-03-18T03:34:27.690Z,11.50
2023-03-18T03:37:55.187Z,10.00
2023-03-18T03:41:23.415Z,10.10
2023-03-18T03:44:51.374Z,10.60
2023-03-18T03:48:18.390Z,10.20
2023-03-18T03:51:45.830Z,10.70
2023-03-18T03:55:17.705Z,11.90
2023-03-18T03:58:45.074Z,11.10
2023-03-18T04:02:12.670Z,10.90
2023-03-18T04:05:40.190Z,11.70
2023-03-18T04:09:07.250Z,10.80
2023-03-18T04:12:34.852Z,11.10
2023-03-18T04:16:02.639Z,11.20
2023-03-18T04:19:33.645Z,11.20
2023-03-18T04:23:08.440Z,11.10
2023-03-18T04:26:35.721Z,11.10
2023-03-18T04:30:04.341Z,11.20
2023-03-18T04:33:47.682Z,9.50
2023-03-18T04:37:20.248Z,10.80
2023-03-18T04:40:49.451Z,10.80
2023-03-18T04:44:18.087Z,10.70
2023-03-18T04:51:17.074Z,10.90
2023-03-18T04:54:44.859Z,11.50
2023-03-18T04:58:12.552Z,10.80
2023-03-18T05:01:43.187Z,11.10
2023-03-18T05:05:12.086Z,10.60
2023-03-18T05:08:43.858Z,11.40
2023-03-18T05:12:16.127Z,10.70
2023-03-18T05:15:43.092Z,11.80
2023-03-18T05:19:09.950Z,10.40
2023-03-18T05:22:39.699Z,10.40
2023-03-18T05:26:13.249Z,9.90
2023-03-18T05:29:42.260Z,11.10
2023-03-18T05:33:14.143Z,11.10
2023-03-18T05:36:52.332Z,9.60
2023-03-18T05:40:19.986Z,9.30
2023-03-18T05:43:58.789Z,11.10
2023-03-18T05:47:26.158Z,10.10
2023-03-18T05:51:01.617Z,10.40
2023-03-18T05:54:30.456Z,10.20
2023-03-18T05:57:57.856Z,9.50
2023-03-18T06:01:26.954Z,10.00
2023-03-18T06:04:54.880Z,9.60
2023-03-18T06:08:22.573Z,10.20
2023-03-18T06:11:49.573Z,11.40
2023-03-18T06:15:17.521Z,9.80
2023-03-18T06:18:45.294Z,10.00
2023-03-18T06:22:15.622Z,9.20
2023-03-18T06:25:43.457Z,9.90
2023-03-18T06:29:11.017Z,10.10
2023-03-18T06:32:38.640Z,9.60
2023-03-18T06:36:06.329Z,9.60
2023-03-18T06:39:32.988Z,8.80
2023-03-18T06:43:03.448Z,10.60
2023-03-18T06:50:02.411Z,9.30
2023-03-18T06:53:31.918Z,9.40
2023-03-18T06:56:59.023Z,8.90
2023-03-18T07:00:27.186Z,10.10
2023-03-18T07:03:54.286Z,8.80
2023-03-18T07:07:22.546Z,8.60
2023-03-18T07:10:50.356Z,9.60
2023-03-18T07:14:18.656Z,10.20
2023-03-18T07:17:46.927Z,9.50
2023-03-18T07:21:14.076Z,10.60
2023-03-18T07:24:41.033Z,13.40
2023-03-18T07:28:07.798Z,11.10
2023-03-18T07:31:34.444Z,10.90
2023-03-18T07:35:01.026Z,10.10
2023-03-18T07:38:27.830Z,10.00
2023-03-18T07:41:54.515Z,9.90
2023-03-18T07:45:23.374Z,9.50
2023-03-18T07:48:50.704Z,9.30
2023-03-18T07:52:18.330Z,10.30
2023-03-18T07:55:46.489Z,11.40
2023-03-18T07:59:12.965Z,11.00
2023-03-18T08:02:40.354Z,10.40
2023-03-18T08:06:08.306Z,12.10
2023-03-18T08:09:35.049Z,11.10
2023-03-18T08:13:01.632Z,10.40
2023-03-18T08:16:31.399Z,10.80
2023-03-18T08:19:58.638Z,10.30
2023-03-18T08:23:26.058Z,10.30
2023-03-18T08:26:52.721Z,10.80
2023-03-18T08:30:20.103Z,10.20
2023-03-18T08:33:49.675Z,10.20
2023-03-18T08:37:16.369Z,9.70
2023-03-18T08:40:46.577Z,10.90
2023-03-18T08:44:13.384Z,10.00
2023-03-18T08:47:40.072Z,10.40
2023-03-18T08:51:09.501Z,10.50
2023-03-18T08:54:38.827Z,10.10
2023-03-18T08:58:05.912Z,11.30
2023-03-18T09:01:33.240Z,11.60
2023-03-18T09:05:00.063Z,11.00
2023-03-18T09:08:31.548Z,10.50
2023-03-18T09:11:58.206Z,10.70
2023-03-18T09:15:27.662Z,11.00
2023-03-18T09:18:54.440Z,11.20
2023-03-18T09:22:22.036Z,9.80
2023-03-18T09:25:50.505Z,10.40
2023-03-18T09:29:17.456Z,9.80
2023-03-18T09:32:44.962Z,10.30
2023-03-18T09:36:14.124Z,9.90
2023-03-18T09:39:44.984Z,9.70
2023-03-18T09:43:30.400Z,12.90
2023-03-18T09:47:25.754Z,11.00
2023-03-18T09:51:04.347Z,9.90
2023-03-18T09:54:39.555Z,12.00
2023-03-18T09:58:17.503Z,11.40
2023-03-18T10:01:47.941Z,10.80
2023-03-18T10:05:19.811Z,11.20
2023-03-18T10:08:59.970Z,17.30
2023-03-18T10:12:36.062Z,15.20
2023-03-18T10:16:09.673Z,9.50
2023-03-18T10:19:38.792Z,10.60
2023-03-18T10:23:15.218Z,10.50
2023-03-18T10:26:49.078Z,10.50
2023-03-18T10:30:32.778Z,9.80
2023-03-18T10:37:36.529Z,10.80
2023-03-18T10:41:10.804Z,10.40
2023-03-18T10:44:43.027Z,11.20
2023-03-18T10:48:16.866Z,11.50
2023-03-18T10:51:52.743Z,10.00
2023-03-18T10:55:23.082Z,10.60
2023-03-18T10:58:51.167Z,11.80
2023-03-18T11:02:23.035Z,11.00
2023-03-18T11:05:52.531Z,13.60
2023-03-18T11:09:22.944Z,12.30
2023-03-18T11:12:50.897Z,13.40
2023-03-18T11:16:30.184Z,12.90
2023-03-18T11:20:08.324Z,12.60
2023-03-18T11:23:49.291Z,12.80
2023-03-18T11:27:51.369Z,11.20
2023-03-18T11:31:25.259Z,12.20
2023-03-18T11:38:28.926Z,12.00
2023-03-18T11:41:57.965Z,12.40
2023-03-18T11:45:48.981Z,12.30
2023-03-18T11:49:19.661Z,13.00
2023-03-18T11:52:53.302Z,13.70
2023-03-18T11:56:31.028Z,13.40
2023-03-18T12:00:17.848Z,13.50
2023-03-18T12:04:08.103Z,13.80
2023-03-18T12:07:56.648Z,12.60
2023-03-18T12:11:33.327Z,12.50
2023-03-18T12:15:11.904Z,12.80
2023-03-18T12:18:59.377Z,14.10
2023-03-18T12:23:00.404Z,13.10
2023-03-18T12:26:36.443Z,13.30
2023-03-18T12:30:38.522Z,14.00
2023-03-18T12:34:06.351Z,13.50
2023-03-18T12:37:44.856Z,13.40
2023-03-18T12:41:17.941Z,15.70
2023-03-18T12:44:58.035Z,15.20
2023-03-18T12:48:44.933Z,13.70
2023-03-18T12:52:19.647Z,13.70
2023-03-18T12:55:49.466Z,15.50
2023-03-18T12:59:25.920Z,15.10
2023-03-18T13:03:00.248Z,16.40
2023-03-18T13:06:32.309Z,15.70
2023-03-18T13:10:04.561Z,13.70
2023-03-18T13:13:34.791Z,14.60
2023-03-18T13:17:02.793Z,15.70
2023-03-18T13:20:34.733Z,14.70
2023-03-18T13:24:32.388Z,14.10
2023-03-18T13:28:19.454Z,13.60
2023-03-18T13:31:56.331Z,14.90
2023-03-18T13:35:47.409Z,14.10
2023-03-18T13:39:37.349Z,14.20
2023-03-18T13:43:04.709Z,15.90
2023-03-18T13:46:35.200Z,14.60
2023-03-18T13:50:05.840Z,16.10
2023-03-18T13:53:35.809Z,19.40
2023-03-18T13:57:20.656Z,14.90
2023-03-18T14:01:09.317Z,15.80
2023-03-18T14:04:49.508Z,16.10
2023-03-18T14:08:38.625Z,21.20
2023-03-18T14:12:39.205Z,15.70
2023-03-18T14:16:12.923Z,15.40
2023-03-18T14:19:42.560Z,12.80
2023-03-18T14:23:39.641Z,14.00
2023-03-18T14:27:21.978Z,13.80
2023-03-18T14:30:56.293Z,13.20
2023-03-18T14:34:35.472Z,13.00
2023-03-18T14:38:12.842Z,13.90
2023-03-18T14:41:43.635Z,15.80
2023-03-18T14:45:21.346Z,13.90
2023-03-18T14:48:52.607Z,16.20
2023-03-18T14:52:30.064Z,15.20
2023-03-18T14:55:57.432Z,14.50
2023-03-18T14:59:27.279Z,14.60
2023-03-18T15:03:05.774Z,14.30
2023-03-18T15:06:33.929Z,13.00
2023-03-18T15:10:02.870Z,13.20
2023-03-18T15:13:30.736Z,13.30
2023-03-18T15:17:01.830Z,13.80
2023-03-18T15:20:29.966Z,13.80
2023-03-18T15:24:00.183Z,12.50
2023-03-18T15:27:31.242Z,11.90
2023-03-18T15:31:02.865Z,11.80
2023-03-18T15:34:36.315Z,13.70
2023-03-18T15:38:14.851Z,12.00
2023-03-18T15:41:43.719Z,12.50
2023-03-18T15:45:19.703Z,11.40
2023-03-18T15:48:54.985Z,11.20
2023-03-18T15:52:29.514Z,12.60
2023-03-18T15:55:59.158Z,17.00
2023-03-18T15:59:33.496Z,15.40
2023-03-18T16:03:04.206Z,13.70
2023-03-18T16:06:34.683Z,19.40
2023-03-18T16:10:01.899Z,21.30
2023-03-18T16:13:34.757Z,19.80
2023-03-18T16:17:02.122Z,21.30
2023-03-18T16:20:31.905Z,25.90
2023-03-18T16:23:59.972Z,32.60
2023-03-18T16:27:34.952Z,30.40
2023-03-18T16:31:02.048Z,29.30
2023-03-18T16:34:29.792Z,21.90
2023-03-18T16:37:57.724Z,28.00
2023-03-18T16:41:25.940Z,28.80
2023-03-18T16:44:53.746Z,25.50
2023-03-18T16:48:23.600Z,20.50
2023-03-18T16:51:54.777Z,19.40
2023-03-18T16:55:24.244Z,22.00
2023-03-18T16:58:52.824Z,32.70
2023-03-18T17:02:32.987Z,34.70
2023-03-18T17:06:00.521Z,38.80
2023-03-18T17:09:28.431Z,40.80
2023-03-18T17:12:59.786Z,47.40
2023-03-18T17:16:31.024Z,44.30
2023-03-18T17:20:00.088Z,26.00
2023-03-18T17:23:30.631Z,20.20
2023-03-18T17:26:58.958Z,21.60
2023-03-18T17:30:30.274Z,29.30
2023-03-18T17:34:03.692Z,25.10
2023-03-18T17:37:33.029Z,23.60
2023-03-18T17:41:03.305Z,24.10
2023-03-18T17:44:32.467Z,23.10
2023-03-18T17:48:16.300Z,26.10
2023-03-18T17:51:48.884Z,31.00
2023-03-18T17:55:25.370Z,29.50
2023-03-18T17:59:00.221Z,23.20
2023-03-18T18:02:32.947Z,22.50
2023-03-18T18:06:05.316Z,19.60
2023-03-18T18:09:34.325Z,17.30
2023-03-18T18:13:03.133Z,19.40
2023-03-18T18:16:31.490Z,18.70
2023-03-18T18:20:01.374Z,18.30
2023-03-18T18:23:36.155Z,18.00
2023-03-18T18:27:07.580Z,17.10
2023-03-18T18:30:35.702Z,20.00
2023-03-18T18:34:02.691Z,18.90
2023-03-18T18:37:33.912Z,21.40
2023-03-18T18:41:03.752Z,21.60
2023-03-18T18:44:32.715Z,20.50
2023-03-18T18:48:00.257Z,21.20
2023-03-18T18:51:28.045Z,20.00
2023-03-18T18:54:58.402Z,19.20
2023-03-18T18:58:29.133Z,19.10
2023-03-18T19:02:01.208Z,18.10
2023-03-18T19:05:31.052Z,18.20
2023-03-18T19:08:59.872Z,18.60
2023-03-18T19:12:34.896Z,18.20
2023-03-18T19:16:04.842Z,18.80
2023-03-18T19:19:34.855Z,20.80
2023-03-18T19:23:03.688Z,18.80
2023-03-18T19:26:32.217Z,19.30
2023-03-18T19:30:01.687Z,19.80
2023-03-18T19:33:30.128Z,20.80
2023-03-18T19:36:58.797Z,20.70
2023-03-18T19:40:31.634Z,20.10
2023-03-18T19:44:04.363Z,20.80
2023-03-18T19:47:33.498Z,22.60
2023-03-18T19:51:00.344Z,22.40
2023-03-18T19:54:33.009Z,21.50
2023-03-18T19:58:01.359Z,20.60
2023-03-18T20:01:30.979Z,22.10
2023-03-18T20:05:00.258Z,23.20
2023-03-18T20:08:29.236Z,24.60
2023-03-18T20:12:05.974Z,27.40
2023-03-18T20:15:34.125Z,28.80
2023-03-18T20:19:02.132Z,32.30
2023-03-18T20:22:36.578Z,33.30
2023-03-18T20:26:04.061Z,39.90
2023-03-18T20:29:33.559Z,39.00
2023-03-18T20:33:07.430Z,39.50
2023-03-18T20:36:36.037Z,36.60
2023-03-18T20:40:07.395Z,36.50
2023-03-18T20:43:35.003Z,35.60
2023-03-18T20:47:02.254Z,34.70
2023-03-18T20:50:31.512Z,35.20
2023-03-18T20:54:04.704Z,34.10
2023-03-18T20:57:36.079Z,34.40
2023-03-18T21:01:06.022Z,34.10
2023-03-18T21:04:34.993Z,33.40
2023-03-18T21:08:02.367Z,34.20
2023-03-18T21:11:33.362Z,32.40
2023-03-18T21:15:00.732Z,31.90
2023-03-18T21:18:29.377Z,30.90
2023-03-18T21:21:56.633Z,29.70
2023-03-18T21:25:27.515Z,28.90
2023-03-18T21:28:54.781Z,28.60
2023-03-18T21:32:31.847Z,27.30
2023-03-18T21:35:59.490Z,26.70
2023-03-18T21:39:26.874Z,28.30
2023-03-18T21:42:56.001Z,27.00
2023-03-18T21:46:27.353Z,28.50
2023-03-18T21:49:53.896Z,26.90
2023-03-18T21:53:27.405Z,26.00
2023-03-18T21:56:56.909Z,26.60
2023-03-18T22:00:25.418Z,26.20
2023-03-18T22:03:53.974Z,24.20
2023-03-18T22:07:23.159Z,24.10
2023-03-18T22:10:51.276Z,26.00
2023-03-18T22:14:18.442Z,26.90
2023-03-18T22:17:47.990Z,25.50
2023-03-18T22:21:20.547Z,25.90
2023-03-18T22:24:48.246Z,25.30
2023-03-18T22:28:15.812Z,26.60
2023-03-18T22:31:43.417Z,25.00
2023-03-18T22:35:17.286Z,25.40
2023-03-18T22:38:46.892Z,24.90
2023-03-18T22:42:19.492Z,23.80
2023-03-18T22:49:13.055Z,23.00
2023-03-18T22:52:40.753Z,23.40
2023-03-18T22:56:15.684Z,23.90
2023-03-18T22:59:42.759Z,23.80
2023-03-18T23:03:15.142Z,22.60
2023-03-18T23:06:51.290Z,24.40
2023-03-18T23:10:19.484Z,24.20
2023-03-18T23:13:51.064Z,24.70
2023-03-18T23:17:19.940Z,24.90
2023-03-18T23:20:49.063Z,23.70
2023-03-18T23:24:16.270Z,24.50
2023-03-18T23:27:46.292Z,23.60
2023-03-18T23:31:15.790Z,24.80
2023-03-18T23:34:43.359Z,24.90
2023-03-18T23:38:10.243Z,24.20
2023-03-18T23:41:37.876Z,27.00
2023-03-18T23:45:05.452Z,27.50
2023-03-18T23:48:33.048Z,26.70
2023-03-18T23:52:00.513Z,27.20
2023-03-18T23:55:35.447Z,25.80
2023-03-18T23:59:03.759Z,24.30
